sensor_id;sensor_type;location;lat;lon;timestamp;P1;durP1;ratioP1;P2;durP2;ratioP2
26820;SDS011;37186;51.394;5.454;2023-04-29T00:00:28;2.83;;;2.73;;
26820;SDS011;37186;51.394;5.454;2023-04-29T00:03:29;2.80;;;2.70;;
26820;SDS011;37186;51.394;5.454;2023-04-29T00:06:31;2.70;;;2.60;;
26820;SDS011;37186;51.394;5.454;2023-04-29T00:09:31;2.80;;;2.70;;
26820;SDS011;37186;51.394;5.454;2023-04-29T00:12:32;2.90;;;2.80;;
26820;SDS011;37186;51.394;5.454;2023-04-29T00:15:32;2.80;;;2.70;;
26820;SDS011;37186;51.394;5.454;2023-04-29T00:18:33;2.80;;;2.70;;
26820;SDS011;37186;51.394;5.454;2023-04-29T00:21:33;2.97;;;2.87;;
26820;SDS011;37186;51.394;5.454;2023-04-29T00:24:34;3.00;;;2.90;;
26820;SDS011;37186;51.394;5.454;2023-04-29T00:27:35;2.97;;;2.87;;
26820;SDS011;37186;51.394;5.454;2023-04-29T00:30:35;3.00;;;2.90;;
26820;SDS011;37186;51.394;5.454;2023-04-29T00:33:36;3.17;;;3.07;;
26820;SDS011;37186;51.394;5.454;2023-04-29T00:36:37;3.00;;;2.90;;
26820;SDS011;37186;51.394;5.454;2023-04-29T00:39:37;2.90;;;2.80;;
26820;SDS011;37186;51.394;5.454;2023-04-29T00:42:38;3.00;;;2.90;;
26820;SDS011;37186;51.394;5.454;2023-04-29T00:45:39;3.00;;;2.90;;
26820;SDS011;37186;51.394;5.454;2023-04-29T00:48:39;2.90;;;2.80;;
26820;SDS011;37186;51.394;5.454;2023-04-29T00:51:40;2.93;;;2.83;;
26820;SDS011;37186;51.394;5.454;2023-04-29T00:54:41;2.90;;;2.80;;
26820;SDS011;37186;51.394;5.454;2023-04-29T00:57:42;3.03;;;2.93;;
26820;SDS011;37186;51.394;5.454;2023-04-29T01:00:47;3.10;;;3.00;;
26820;SDS011;37186;51.394;5.454;2023-04-29T01:03:48;3.00;;;2.90;;
26820;SDS011;37186;51.394;5.454;2023-04-29T01:10:15;3.00;;;2.90;;
26820;SDS011;37186;51.394;5.454;2023-04-29T01:13:28;2.97;;;2.87;;
26820;SDS011;37186;51.394;5.454;2023-04-29T01:16:37;2.90;;;2.80;;
26820;SDS011;37186;51.394;5.454;2023-04-29T01:19:45;2.90;;;2.80;;
26820;SDS011;37186;51.394;5.454;2023-04-29T01:22:49;3.00;;;2.90;;
26820;SDS011;37186;51.394;5.454;2023-04-29T01:25:49;2.90;;;2.80;;
26820;SDS011;37186;51.394;5.454;2023-04-29T01:28:53;3.00;;;2.90;;
26820;SDS011;37186;51.394;5.454;2023-04-29T01:32:13;3.00;;;2.90;;
26820;SDS011;37186;51.394;5.454;2023-04-29T01:35:43;2.90;;;2.80;;
26820;SDS011;37186;51.394;5.454;2023-04-29T01:39:10;2.90;;;2.80;;
26820;SDS011;37186;51.394;5.454;2023-04-29T01:42:21;2.97;;;2.87;;
26820;SDS011;37186;51.394;5.454;2023-04-29T01:45:27;3.00;;;2.90;;
26820;SDS011;37186;51.394;5.454;2023-04-29T01:48:28;2.97;;;2.87;;
26820;SDS011;37186;51.394;5.454;2023-04-29T01:51:30;3.00;;;2.90;;
26820;SDS011;37186;51.394;5.454;2023-04-29T01:54:31;3.20;;;3.10;;
26820;SDS011;37186;51.394;5.454;2023-04-29T01:57:35;3.07;;;2.97;;
26820;SDS011;37186;51.394;5.454;2023-04-29T02:00:35;3.00;;;2.90;;
26820;SDS011;37186;51.394;5.454;2023-04-29T02:03:37;3.10;;;3.00;;
26820;SDS011;37186;51.394;5.454;2023-04-29T02:06:38;2.90;;;2.80;;
26820;SDS011;37186;51.394;5.454;2023-04-29T02:09:38;3.00;;;2.90;;
26820;SDS011;37186;51.394;5.454;2023-04-29T02:12:39;3.00;;;2.90;;
26820;SDS011;37186;51.394;5.454;2023-04-29T02:15:39;3.17;;;3.07;;
26820;SDS011;37186;51.394;5.454;2023-04-29T02:18:40;3.10;;;3.00;;
26820;SDS011;37186;51.394;5.454;2023-04-29T02:21:41;3.10;;;3.00;;
26820;SDS011;37186;51.394;5.454;2023-04-29T02:24:42;3.00;;;2.90;;
26820;SDS011;37186;51.394;5.454;2023-04-29T02:27:42;3.27;;;3.17;;
26820;SDS011;37186;51.394;5.454;2023-04-29T02:30:43;3.10;;;3.00;;
26820;SDS011;37186;51.394;5.454;2023-04-29T02:33:43;3.07;;;2.97;;
26820;SDS011;37186;51.394;5.454;2023-04-29T02:36:44;3.00;;;2.90;;
26820;SDS011;37186;51.394;5.454;2023-04-29T02:39:44;2.90;;;2.80;;
26820;SDS011;37186;51.394;5.454;2023-04-29T02:42:45;3.07;;;2.97;;
26820;SDS011;37186;51.394;5.454;2023-04-29T02:45:46;3.10;;;3.00;;
26820;SDS011;37186;51.394;5.454;2023-04-29T02:48:46;3.10;;;3.00;;
26820;SDS011;37186;51.394;5.454;2023-04-29T02:51:47;3.00;;;2.90;;
26820;SDS011;37186;51.394;5.454;2023-04-29T02:54:48;2.93;;;2.83;;
26820;SDS011;37186;51.394;5.454;2023-04-29T02:57:49;3.20;;;3.10;;
26820;SDS011;37186;51.394;5.454;2023-04-29T03:00:49;3.10;;;3.00;;
26820;SDS011;37186;51.394;5.454;2023-04-29T03:03:50;3.20;;;3.10;;
26820;SDS011;37186;51.394;5.454;2023-04-29T03:06:51;3.23;;;3.13;;
26820;SDS011;37186;51.394;5.454;2023-04-29T03:09:53;3.20;;;3.10;;
26820;SDS011;37186;51.394;5.454;2023-04-29T03:12:54;3.20;;;3.10;;
26820;SDS011;37186;51.394;5.454;2023-04-29T03:15:54;3.20;;;3.10;;
26820;SDS011;37186;51.394;5.454;2023-04-29T03:18:57;3.20;;;3.10;;
26820;SDS011;37186;51.394;5.454;2023-04-29T03:21:58;3.17;;;3.07;;
26820;SDS011;37186;51.394;5.454;2023-04-29T03:24:58;3.30;;;3.20;;
26820;SDS011;37186;51.394;5.454;2023-04-29T03:27:59;3.30;;;3.20;;
26820;SDS011;37186;51.394;5.454;2023-04-29T03:30:59;3.10;;;3.00;;
26820;SDS011;37186;51.394;5.454;2023-04-29T03:34:00;3.10;;;3.00;;
26820;SDS011;37186;51.394;5.454;2023-04-29T03:37:01;2.90;;;2.80;;
26820;SDS011;37186;51.394;5.454;2023-04-29T03:40:01;2.97;;;2.87;;
26820;SDS011;37186;51.394;5.454;2023-04-29T03:43:03;3.03;;;2.93;;
26820;SDS011;37186;51.394;5.454;2023-04-29T03:46:03;2.90;;;2.80;;
26820;SDS011;37186;51.394;5.454;2023-04-29T03:49:04;3.20;;;3.10;;
26820;SDS011;37186;51.394;5.454;2023-04-29T03:52:04;3.00;;;2.90;;
26820;SDS011;37186;51.394;5.454;2023-04-29T03:55:05;3.20;;;3.10;;
26820;SDS011;37186;51.394;5.454;2023-04-29T03:58:06;2.90;;;2.80;;
26820;SDS011;37186;51.394;5.454;2023-04-29T04:01:06;3.00;;;2.90;;
26820;SDS011;37186;51.394;5.454;2023-04-29T04:04:07;3.00;;;2.90;;
26820;SDS011;37186;51.394;5.454;2023-04-29T04:07:07;3.10;;;3.00;;
26820;SDS011;37186;51.394;5.454;2023-04-29T04:10:08;3.13;;;3.03;;
26820;SDS011;37186;51.394;5.454;2023-04-29T04:13:09;3.00;;;2.90;;
26820;SDS011;37186;51.394;5.454;2023-04-29T04:16:09;3.00;;;2.90;;
26820;SDS011;37186;51.394;5.454;2023-04-29T04:19:10;3.30;;;3.20;;
26820;SDS011;37186;51.394;5.454;2023-04-29T04:22:11;3.20;;;3.10;;
26820;SDS011;37186;51.394;5.454;2023-04-29T04:25:11;3.10;;;3.00;;
26820;SDS011;37186;51.394;5.454;2023-04-29T04:28:12;3.00;;;2.90;;
26820;SDS011;37186;51.394;5.454;2023-04-29T04:31:12;3.10;;;3.00;;
26820;SDS011;37186;51.394;5.454;2023-04-29T04:34:16;3.13;;;3.03;;
26820;SDS011;37186;51.394;5.454;2023-04-29T04:37:16;3.17;;;3.07;;
26820;SDS011;37186;51.394;5.454;2023-04-29T04:40:17;3.07;;;2.97;;
26820;SDS011;37186;51.394;5.454;2023-04-29T04:43:17;3.10;;;3.00;;
26820;SDS011;37186;51.394;5.454;2023-04-29T04:46:18;3.00;;;2.90;;
26820;SDS011;37186;51.394;5.454;2023-04-29T04:49:19;3.23;;;3.13;;
26820;SDS011;37186;51.394;5.454;2023-04-29T04:52:19;2.90;;;2.80;;
26820;SDS011;37186;51.394;5.454;2023-04-29T04:55:21;3.10;;;3.00;;
26820;SDS011;37186;51.394;5.454;2023-04-29T04:58:22;3.00;;;2.90;;
26820;SDS011;37186;51.394;5.454;2023-04-29T05:01:22;3.07;;;2.97;;
26820;SDS011;37186;51.394;5.454;2023-04-29T05:04:23;3.20;;;3.10;;
26820;SDS011;37186;51.394;5.454;2023-04-29T05:07:23;3.10;;;3.00;;
26820;SDS011;37186;51.394;5.454;2023-04-29T05:10:24;3.00;;;2.90;;
26820;SDS011;37186;51.394;5.454;2023-04-29T05:13:25;3.00;;;2.90;;
26820;SDS011;37186;51.394;5.454;2023-04-29T05:16:26;3.17;;;3.07;;
26820;SDS011;37186;51.394;5.454;2023-04-29T05:19:27;3.20;;;3.10;;
26820;SDS011;37186;51.394;5.454;2023-04-29T05:22:27;3.00;;;2.90;;
26820;SDS011;37186;51.394;5.454;2023-04-29T05:25:28;2.97;;;2.87;;
26820;SDS011;37186;51.394;5.454;2023-04-29T05:28:29;3.03;;;2.93;;
26820;SDS011;37186;51.394;5.454;2023-04-29T05:31:29;3.10;;;3.00;;
26820;SDS011;37186;51.394;5.454;2023-04-29T05:34:31;3.10;;;3.00;;
26820;SDS011;37186;51.394;5.454;2023-04-29T05:37:31;3.20;;;3.10;;
26820;SDS011;37186;51.394;5.454;2023-04-29T05:40:32;3.20;;;3.10;;
26820;SDS011;37186;51.394;5.454;2023-04-29T05:43:33;3.00;;;2.90;;
26820;SDS011;37186;51.394;5.454;2023-04-29T05:46:33;3.20;;;3.10;;
26820;SDS011;37186;51.394;5.454;2023-04-29T05:49:34;3.30;;;3.20;;
26820;SDS011;37186;51.394;5.454;2023-04-29T05:52:34;3.10;;;3.00;;
26820;SDS011;37186;51.394;5.454;2023-04-29T05:55:35;3.10;;;3.00;;
26820;SDS011;37186;51.394;5.454;2023-04-29T05:58:36;3.20;;;3.10;;
26820;SDS011;37186;51.394;5.454;2023-04-29T06:01:36;3.10;;;3.00;;
26820;SDS011;37186;51.394;5.454;2023-04-29T06:04:37;3.20;;;3.10;;
26820;SDS011;37186;51.394;5.454;2023-04-29T06:07:40;3.10;;;3.00;;
26820;SDS011;37186;51.394;5.454;2023-04-29T06:10:41;3.23;;;3.13;;
26820;SDS011;37186;51.394;5.454;2023-04-29T06:13:42;3.20;;;3.10;;
26820;SDS011;37186;51.394;5.454;2023-04-29T06:16:42;3.00;;;2.90;;
26820;SDS011;37186;51.394;5.454;2023-04-29T06:19:43;3.10;;;3.00;;
26820;SDS011;37186;51.394;5.454;2023-04-29T06:22:43;3.10;;;3.00;;
26820;SDS011;37186;51.394;5.454;2023-04-29T06:25:44;3.03;;;2.93;;
26820;SDS011;37186;51.394;5.454;2023-04-29T06:28:44;3.30;;;3.20;;
26820;SDS011;37186;51.394;5.454;2023-04-29T06:31:45;3.30;;;3.20;;
26820;SDS011;37186;51.394;5.454;2023-04-29T06:34:46;3.10;;;3.00;;
26820;SDS011;37186;51.394;5.454;2023-04-29T06:37:47;3.10;;;3.00;;
26820;SDS011;37186;51.394;5.454;2023-04-29T06:40:47;3.20;;;3.10;;
26820;SDS011;37186;51.394;5.454;2023-04-29T06:43:48;3.00;;;2.90;;
26820;SDS011;37186;51.394;5.454;2023-04-29T06:46:48;3.03;;;2.93;;
26820;SDS011;37186;51.394;5.454;2023-04-29T06:49:49;3.07;;;2.97;;
26820;SDS011;37186;51.394;5.454;2023-04-29T06:52:49;3.00;;;2.90;;
26820;SDS011;37186;51.394;5.454;2023-04-29T06:55:50;3.30;;;3.20;;
26820;SDS011;37186;51.394;5.454;2023-04-29T06:58:51;3.30;;;3.20;;
26820;SDS011;37186;51.394;5.454;2023-04-29T07:01:51;3.10;;;3.00;;
26820;SDS011;37186;51.394;5.454;2023-04-29T07:04:52;2.90;;;2.80;;
26820;SDS011;37186;51.394;5.454;2023-04-29T07:07:52;3.10;;;3.00;;
26820;SDS011;37186;51.394;5.454;2023-04-29T07:10:57;3.03;;;2.93;;
26820;SDS011;37186;51.394;5.454;2023-04-29T07:13:58;3.10;;;3.00;;
26820;SDS011;37186;51.394;5.454;2023-04-29T07:16:58;3.00;;;2.90;;
26820;SDS011;37186;51.394;5.454;2023-04-29T07:19:59;2.90;;;2.80;;
26820;SDS011;37186;51.394;5.454;2023-04-29T07:22:59;2.97;;;2.87;;
26820;SDS011;37186;51.394;5.454;2023-04-29T07:26:10;2.90;;;2.80;;
26820;SDS011;37186;51.394;5.454;2023-04-29T07:29:18;2.97;;;2.87;;
26820;SDS011;37186;51.394;5.454;2023-04-29T07:32:18;2.90;;;2.80;;
26820;SDS011;37186;51.394;5.454;2023-04-29T07:35:21;4.82;;;4.72;;
26820;SDS011;37186;51.394;5.454;2023-04-29T07:38:22;3.00;;;2.90;;
26820;SDS011;37186;51.394;5.454;2023-04-29T07:41:22;2.70;;;2.70;;
26820;SDS011;37186;51.394;5.454;2023-04-29T07:44:23;3.00;;;2.90;;
26820;SDS011;37186;51.394;5.454;2023-04-29T07:47:23;2.90;;;2.80;;
26820;SDS011;37186;51.394;5.454;2023-04-29T07:50:24;3.00;;;2.90;;
26820;SDS011;37186;51.394;5.454;2023-04-29T07:53:24;3.03;;;2.93;;
26820;SDS011;37186;51.394;5.454;2023-04-29T07:56:25;2.90;;;2.80;;
26820;SDS011;37186;51.394;5.454;2023-04-29T07:59:25;2.93;;;2.83;;
26820;SDS011;37186;51.394;5.454;2023-04-29T08:02:26;2.90;;;2.80;;
26820;SDS011;37186;51.394;5.454;2023-04-29T08:05:27;2.70;;;2.70;;
26820;SDS011;37186;51.394;5.454;2023-04-29T08:08:29;3.00;;;2.90;;
26820;SDS011;37186;51.394;5.454;2023-04-29T08:11:30;3.00;;;2.90;;
26820;SDS011;37186;51.394;5.454;2023-04-29T08:14:31;3.00;;;2.90;;
26820;SDS011;37186;51.394;5.454;2023-04-29T08:17:31;3.00;;;2.90;;
26820;SDS011;37186;51.394;5.454;2023-04-29T08:20:32;3.30;;;3.20;;
26820;SDS011;37186;51.394;5.454;2023-04-29T08:23:32;3.27;;;3.17;;
26820;SDS011;37186;51.394;5.454;2023-04-29T08:26:33;3.33;;;3.23;;
26820;SDS011;37186;51.394;5.454;2023-04-29T08:29:33;3.53;;;3.43;;
26820;SDS011;37186;51.394;5.454;2023-04-29T08:32:34;3.23;;;3.13;;
26820;SDS011;37186;51.394;5.454;2023-04-29T08:35:35;3.20;;;3.10;;
26820;SDS011;37186;51.394;5.454;2023-04-29T08:38:38;3.30;;;3.20;;
26820;SDS011;37186;51.394;5.454;2023-04-29T08:41:39;3.40;;;3.30;;
26820;SDS011;37186;51.394;5.454;2023-04-29T08:44:39;3.20;;;3.10;;
26820;SDS011;37186;51.394;5.454;2023-04-29T08:47:41;3.20;;;3.10;;
26820;SDS011;37186;51.394;5.454;2023-04-29T08:50:42;3.20;;;3.10;;
26820;SDS011;37186;51.394;5.454;2023-04-29T08:53:43;3.10;;;3.00;;
26820;SDS011;37186;51.394;5.454;2023-04-29T08:56:44;2.93;;;2.83;;
26820;SDS011;37186;51.394;5.454;2023-04-29T08:59:46;3.10;;;3.00;;
26820;SDS011;37186;51.394;5.454;2023-04-29T09:02:48;2.97;;;2.87;;
26820;SDS011;37186;51.394;5.454;2023-04-29T09:05:52;2.77;;;2.70;;
26820;SDS011;37186;51.394;5.454;2023-04-29T09:08:54;3.00;;;2.90;;
26820;SDS011;37186;51.394;5.454;2023-04-29T09:11:54;2.90;;;2.80;;
26820;SDS011;37186;51.394;5.454;2023-04-29T09:14:55;3.00;;;2.90;;
26820;SDS011;37186;51.394;5.454;2023-04-29T09:17:56;2.93;;;2.83;;
26820;SDS011;37186;51.394;5.454;2023-04-29T09:20:57;2.95;;;2.85;;
26820;SDS011;37186;51.394;5.454;2023-04-29T09:24:01;3.15;;;3.05;;
26820;SDS011;37186;51.394;5.454;2023-04-29T09:27:02;3.03;;;2.92;;
26820;SDS011;37186;51.394;5.454;2023-04-29T09:30:03;3.20;;;3.10;;
26820;SDS011;37186;51.394;5.454;2023-04-29T09:33:07;3.13;;;3.03;;
26820;SDS011;37186;51.394;5.454;2023-04-29T09:36:08;3.23;;;3.13;;
26820;SDS011;37186;51.394;5.454;2023-04-29T09:39:09;3.10;;;3.00;;
26820;SDS011;37186;51.394;5.454;2023-04-29T09:42:11;3.30;;;3.20;;
26820;SDS011;37186;51.394;5.454;2023-04-29T09:45:24;3.20;;;3.10;;
26820;SDS011;37186;51.394;5.454;2023-04-29T09:48:32;3.20;;;3.10;;
26820;SDS011;37186;51.394;5.454;2023-04-29T09:51:33;3.13;;;3.03;;
26820;SDS011;37186;51.394;5.454;2023-04-29T09:54:52;3.20;;;3.10;;
26820;SDS011;37186;51.394;5.454;2023-04-29T09:58:04;3.38;;;3.28;;
26820;SDS011;37186;51.394;5.454;2023-04-29T10:01:05;3.33;;;3.22;;
26820;SDS011;37186;51.394;5.454;2023-04-29T10:04:07;3.35;;;3.25;;
26820;SDS011;37186;51.394;5.454;2023-04-29T10:07:14;3.38;;;3.28;;
26820;SDS011;37186;51.394;5.454;2023-04-29T10:10:16;3.40;;;3.30;;
26820;SDS011;37186;51.394;5.454;2023-04-29T10:13:17;3.60;;;3.50;;
26820;SDS011;37186;51.394;5.454;2023-04-29T10:16:22;3.70;;;3.60;;
26820;SDS011;37186;51.394;5.454;2023-04-29T10:19:38;3.90;;;3.80;;
26820;SDS011;37186;51.394;5.454;2023-04-29T10:22:50;3.88;;;3.78;;
26820;SDS011;37186;51.394;5.454;2023-04-29T10:25:52;4.13;;;4.03;;
26820;SDS011;37186;51.394;5.454;2023-04-29T10:28:55;4.00;;;3.90;;
26820;SDS011;37186;51.394;5.454;2023-04-29T10:31:55;3.97;;;3.88;;
26820;SDS011;37186;51.394;5.454;2023-04-29T10:34:57;4.00;;;3.90;;
26820;SDS011;37186;51.394;5.454;2023-04-29T10:37:59;4.22;;;4.13;;
26820;SDS011;37186;51.394;5.454;2023-04-29T10:41:08;4.03;;;3.92;;
26820;SDS011;37186;51.394;5.454;2023-04-29T10:44:15;3.92;;;3.83;;
26820;SDS011;37186;51.394;5.454;2023-04-29T10:47:19;3.75;;;3.65;;
26820;SDS011;37186;51.394;5.454;2023-04-29T10:50:20;3.80;;;3.70;;
26820;SDS011;37186;51.394;5.454;2023-04-29T10:53:20;3.95;;;3.85;;
26820;SDS011;37186;51.394;5.454;2023-04-29T10:56:21;3.85;;;3.75;;
26820;SDS011;37186;51.394;5.454;2023-04-29T11:02:35;3.95;;;3.85;;
26820;SDS011;37186;51.394;5.454;2023-04-29T11:05:36;4.30;;;4.20;;
26820;SDS011;37186;51.394;5.454;2023-04-29T11:08:36;3.92;;;3.83;;
26820;SDS011;37186;51.394;5.454;2023-04-29T11:11:42;4.03;;;3.92;;
26820;SDS011;37186;51.394;5.454;2023-04-29T11:15:02;3.92;;;3.83;;
26820;SDS011;37186;51.394;5.454;2023-04-29T11:18:04;3.92;;;3.83;;
26820;SDS011;37186;51.394;5.454;2023-04-29T11:21:10;3.92;;;3.83;;
26820;SDS011;37186;51.394;5.454;2023-04-29T11:24:11;3.65;;;3.55;;
26820;SDS011;37186;51.394;5.454;2023-04-29T11:27:14;3.78;;;3.67;;
26820;SDS011;37186;51.394;5.454;2023-04-29T11:30:15;3.65;;;3.55;;
26820;SDS011;37186;51.394;5.454;2023-04-29T11:33:18;3.55;;;3.45;;
26820;SDS011;37186;51.394;5.454;2023-04-29T11:36:19;3.47;;;3.38;;
26820;SDS011;37186;51.394;5.454;2023-04-29T11:39:19;3.20;;;3.10;;
26820;SDS011;37186;51.394;5.454;2023-04-29T11:42:20;3.35;;;3.25;;
26820;SDS011;37186;51.394;5.454;2023-04-29T11:45:21;3.25;;;3.15;;
26820;SDS011;37186;51.394;5.454;2023-04-29T11:48:25;3.33;;;3.22;;
26820;SDS011;37186;51.394;5.454;2023-04-29T11:51:26;3.50;;;3.40;;
26820;SDS011;37186;51.394;5.454;2023-04-29T11:54:28;3.50;;;3.40;;
26820;SDS011;37186;51.394;5.454;2023-04-29T11:57:29;3.50;;;3.40;;
26820;SDS011;37186;51.394;5.454;2023-04-29T12:00:30;3.58;;;3.47;;
26820;SDS011;37186;51.394;5.454;2023-04-29T12:03:31;3.33;;;3.22;;
26820;SDS011;37186;51.394;5.454;2023-04-29T12:06:32;3.40;;;3.30;;
26820;SDS011;37186;51.394;5.454;2023-04-29T12:09:42;3.13;;;3.03;;
26820;SDS011;37186;51.394;5.454;2023-04-29T12:12:44;3.20;;;3.10;;
26820;SDS011;37186;51.394;5.454;2023-04-29T12:15:45;3.83;;;3.72;;
26820;SDS011;37186;51.394;5.454;2023-04-29T12:18:47;3.53;;;3.42;;
26820;SDS011;37186;51.394;5.454;2023-04-29T12:21:49;3.22;;;3.13;;
26820;SDS011;37186;51.394;5.454;2023-04-29T12:24:51;3.13;;;3.03;;
26820;SDS011;37186;51.394;5.454;2023-04-29T12:27:57;3.28;;;3.17;;
26820;SDS011;37186;51.394;5.454;2023-04-29T12:30:58;3.58;;;3.47;;
26820;SDS011;37186;51.394;5.454;2023-04-29T12:34:02;3.60;;;3.50;;
26820;SDS011;37186;51.394;5.454;2023-04-29T12:37:04;3.55;;;3.45;;
26820;SDS011;37186;51.394;5.454;2023-04-29T12:40:04;3.70;;;3.60;;
26820;SDS011;37186;51.394;5.454;2023-04-29T12:43:06;3.85;;;3.75;;
26820;SDS011;37186;51.394;5.454;2023-04-29T12:46:08;4.47;;;4.38;;
26820;SDS011;37186;51.394;5.454;2023-04-29T12:49:11;5.00;;;4.90;;
26820;SDS011;37186;51.394;5.454;2023-04-29T12:52:12;5.82;;;5.65;;
26820;SDS011;37186;51.394;5.454;2023-04-29T12:55:12;6.03;;;5.82;;
26820;SDS011;37186;51.394;5.454;2023-04-29T12:58:13;6.15;;;5.95;;
26820;SDS011;37186;51.394;5.454;2023-04-29T13:01:14;6.00;;;5.80;;
26820;SDS011;37186;51.394;5.454;2023-04-29T13:04:15;5.35;;;5.25;;
26820;SDS011;37186;51.394;5.454;2023-04-29T13:07:16;5.20;;;5.10;;
26820;SDS011;37186;51.394;5.454;2023-04-29T13:10:18;5.22;;;5.13;;
26820;SDS011;37186;51.394;5.454;2023-04-29T13:13:18;5.05;;;4.95;;
26820;SDS011;37186;51.394;5.454;2023-04-29T13:16:19;4.82;;;4.72;;
26820;SDS011;37186;51.394;5.454;2023-04-29T13:19:21;4.85;;;4.75;;
26820;SDS011;37186;51.394;5.454;2023-04-29T13:22:21;5.03;;;4.93;;
26820;SDS011;37186;51.394;5.454;2023-04-29T13:25:22;5.28;;;5.18;;
26820;SDS011;37186;51.394;5.454;2023-04-29T13:28:22;6.07;;;5.88;;
26820;SDS011;37186;51.394;5.454;2023-04-29T13:31:23;6.07;;;5.90;;
26820;SDS011;37186;51.394;5.454;2023-04-29T13:34:23;5.63;;;5.53;;
26820;SDS011;37186;51.394;5.454;2023-04-29T13:37:24;5.90;;;5.72;;
26820;SDS011;37186;51.394;5.454;2023-04-29T13:40:24;5.57;;;5.47;;
26820;SDS011;37186;51.394;5.454;2023-04-29T13:43:25;6.22;;;6.03;;
26820;SDS011;37186;51.394;5.454;2023-04-29T13:46:26;6.50;;;6.30;;
26820;SDS011;37186;51.394;5.454;2023-04-29T13:49:27;5.50;;;5.40;;
26820;SDS011;37186;51.394;5.454;2023-04-29T13:52:28;5.63;;;5.53;;
26820;SDS011;37186;51.394;5.454;2023-04-29T13:55:30;6.05;;;5.85;;
26820;SDS011;37186;51.394;5.454;2023-04-29T13:58:33;5.55;;;5.45;;
26820;SDS011;37186;51.394;5.454;2023-04-29T14:01:34;5.40;;;5.30;;
26820;SDS011;37186;51.394;5.454;2023-04-29T14:04:34;5.72;;;5.60;;
26820;SDS011;37186;51.394;5.454;2023-04-29T14:07:35;5.32;;;5.22;;
26820;SDS011;37186;51.394;5.454;2023-04-29T14:10:36;6.78;;;6.57;;
26820;SDS011;37186;51.394;5.454;2023-04-29T14:13:36;7.07;;;6.88;;
26820;SDS011;37186;51.394;5.454;2023-04-29T14:16:37;7.00;;;6.80;;
26820;SDS011;37186;51.394;5.454;2023-04-29T14:19:37;7.45;;;7.25;;
26820;SDS011;37186;51.394;5.454;2023-04-29T14:22:38;7.55;;;7.35;;
26820;SDS011;37186;51.394;5.454;2023-04-29T14:25:38;6.88;;;6.68;;
26820;SDS011;37186;51.394;5.454;2023-04-29T14:28:39;6.80;;;6.60;;
26820;SDS011;37186;51.394;5.454;2023-04-29T14:31:39;7.15;;;6.95;;
26820;SDS011;37186;51.394;5.454;2023-04-29T14:34:40;6.90;;;6.70;;
26820;SDS011;37186;51.394;5.454;2023-04-29T14:37:41;6.30;;;6.10;;
26820;SDS011;37186;51.394;5.454;2023-04-29T14:40:42;7.10;;;6.90;;
26820;SDS011;37186;51.394;5.454;2023-04-29T14:43:42;7.28;;;7.07;;
26820;SDS011;37186;51.394;5.454;2023-04-29T14:46:43;6.72;;;6.53;;
26820;SDS011;37186;51.394;5.454;2023-04-29T14:49:43;6.15;;;5.95;;
26820;SDS011;37186;51.394;5.454;2023-04-29T14:52:44;6.03;;;5.82;;
26820;SDS011;37186;51.394;5.454;2023-04-29T14:55:44;6.32;;;6.13;;
26820;SDS011;37186;51.394;5.454;2023-04-29T14:58:45;6.28;;;6.07;;
26820;SDS011;37186;51.394;5.454;2023-04-29T15:01:46;5.90;;;5.72;;
26820;SDS011;37186;51.394;5.454;2023-04-29T15:04:46;6.05;;;5.85;;
26820;SDS011;37186;51.394;5.454;2023-04-29T15:07:47;6.43;;;6.22;;
26820;SDS011;37186;51.394;5.454;2023-04-29T15:10:48;6.05;;;5.85;;
26820;SDS011;37186;51.394;5.454;2023-04-29T15:13:48;6.30;;;6.10;;
26820;SDS011;37186;51.394;5.454;2023-04-29T15:16:49;6.45;;;6.25;;
26820;SDS011;37186;51.394;5.454;2023-04-29T15:19:50;6.65;;;6.45;;
26820;SDS011;37186;51.394;5.454;2023-04-29T15:22:50;6.45;;;6.25;;
26820;SDS011;37186;51.394;5.454;2023-04-29T15:25:51;6.35;;;6.15;;
26820;SDS011;37186;51.394;5.454;2023-04-29T15:28:52;5.63;;;5.53;;
26820;SDS011;37186;51.394;5.454;2023-04-29T15:31:52;6.25;;;6.05;;
26820;SDS011;37186;51.394;5.454;2023-04-29T15:34:53;6.40;;;6.20;;
26820;SDS011;37186;51.394;5.454;2023-04-29T15:37:54;6.57;;;6.38;;
26820;SDS011;37186;51.394;5.454;2023-04-29T15:40:56;6.63;;;6.43;;
26820;SDS011;37186;51.394;5.454;2023-04-29T15:43:59;6.47;;;6.28;;
26820;SDS011;37186;51.394;5.454;2023-04-29T15:47:00;6.35;;;6.15;;
26820;SDS011;37186;51.394;5.454;2023-04-29T15:50:00;6.53;;;6.32;;
26820;SDS011;37186;51.394;5.454;2023-04-29T15:53:01;6.50;;;6.30;;
26820;SDS011;37186;51.394;5.454;2023-04-29T15:56:01;6.78;;;6.57;;
26820;SDS011;37186;51.394;5.454;2023-04-29T15:59:02;6.68;;;6.47;;
26820;SDS011;37186;51.394;5.454;2023-04-29T16:02:03;6.50;;;6.30;;
26820;SDS011;37186;51.394;5.454;2023-04-29T16:05:09;6.80;;;6.60;;
26820;SDS011;37186;51.394;5.454;2023-04-29T16:08:10;6.60;;;6.40;;
26820;SDS011;37186;51.394;5.454;2023-04-29T16:11:10;6.63;;;6.43;;
26820;SDS011;37186;51.394;5.454;2023-04-29T16:14:11;7.00;;;6.80;;
26820;SDS011;37186;51.394;5.454;2023-04-29T16:17:11;7.40;;;7.20;;
26820;SDS011;37186;51.394;5.454;2023-04-29T16:20:12;7.43;;;7.22;;
26820;SDS011;37186;51.394;5.454;2023-04-29T16:23:12;7.57;;;7.38;;
26820;SDS011;37186;51.394;5.454;2023-04-29T16:26:13;7.57;;;7.38;;
26820;SDS011;37186;51.394;5.454;2023-04-29T16:29:13;7.55;;;7.35;;
26820;SDS011;37186;51.394;5.454;2023-04-29T16:32:14;6.82;;;6.63;;
26820;SDS011;37186;51.394;5.454;2023-04-29T16:35:14;8.02;;;7.82;;
26820;SDS011;37186;51.394;5.454;2023-04-29T16:38:15;7.75;;;7.55;;
26820;SDS011;37186;51.394;5.454;2023-04-29T16:41:16;7.30;;;7.10;;
26820;SDS011;37186;51.394;5.454;2023-04-29T16:44:17;6.25;;;6.05;;
26820;SDS011;37186;51.394;5.454;2023-04-29T16:47:17;6.78;;;6.57;;
26820;SDS011;37186;51.394;5.454;2023-04-29T16:50:19;8.23;;;8.02;;
26820;SDS011;37186;51.394;5.454;2023-04-29T16:53:19;7.72;;;7.53;;
26820;SDS011;37186;51.394;5.454;2023-04-29T16:56:20;7.78;;;7.57;;
26820;SDS011;37186;51.394;5.454;2023-04-29T16:59:21;7.68;;;7.47;;
26820;SDS011;37186;51.394;5.454;2023-04-29T17:02:22;7.15;;;6.95;;
26820;SDS011;37186;51.394;5.454;2023-04-29T17:05:23;7.25;;;7.05;;
26820;SDS011;37186;51.394;5.454;2023-04-29T17:08:25;7.00;;;6.80;;
26820;SDS011;37186;51.394;5.454;2023-04-29T17:11:25;7.15;;;6.95;;
26820;SDS011;37186;51.394;5.454;2023-04-29T17:14:26;6.50;;;6.30;;
26820;SDS011;37186;51.394;5.454;2023-04-29T17:17:26;6.57;;;6.38;;
26820;SDS011;37186;51.394;5.454;2023-04-29T17:20:27;6.45;;;6.25;;
26820;SDS011;37186;51.394;5.454;2023-04-29T17:23:27;6.40;;;6.20;;
26820;SDS011;37186;51.394;5.454;2023-04-29T17:26:29;6.38;;;6.18;;
26820;SDS011;37186;51.394;5.454;2023-04-29T17:29:30;6.13;;;5.93;;
26820;SDS011;37186;51.394;5.454;2023-04-29T17:32:31;6.15;;;5.95;;
26820;SDS011;37186;51.394;5.454;2023-04-29T17:35:37;5.35;;;5.25;;
26820;SDS011;37186;51.394;5.454;2023-04-29T17:38:38;5.25;;;5.15;;
26820;SDS011;37186;51.394;5.454;2023-04-29T17:41:39;5.25;;;5.15;;
26820;SDS011;37186;51.394;5.454;2023-04-29T17:44:40;5.13;;;5.03;;
26820;SDS011;37186;51.394;5.454;2023-04-29T17:47:40;5.25;;;5.15;;
26820;SDS011;37186;51.394;5.454;2023-04-29T17:50:41;5.10;;;5.00;;
26820;SDS011;37186;51.394;5.454;2023-04-29T17:53:41;5.03;;;4.93;;
26820;SDS011;37186;51.394;5.454;2023-04-29T17:56:42;4.90;;;4.80;;
26820;SDS011;37186;51.394;5.454;2023-04-29T17:59:42;5.05;;;4.95;;
26820;SDS011;37186;51.394;5.454;2023-04-29T18:02:43;5.35;;;5.25;;
26820;SDS011;37186;51.394;5.454;2023-04-29T18:05:44;5.30;;;5.20;;
26820;SDS011;37186;51.394;5.454;2023-04-29T18:08:46;5.57;;;5.47;;
26820;SDS011;37186;51.394;5.454;2023-04-29T18:11:46;5.57;;;5.47;;
26820;SDS011;37186;51.394;5.454;2023-04-29T18:14:48;5.25;;;5.15;;
26820;SDS011;37186;51.394;5.454;2023-04-29T18:17:50;5.60;;;5.50;;
26820;SDS011;37186;51.394;5.454;2023-04-29T18:20:53;5.53;;;5.43;;